Time;durP1;ratioP1;P1;durP2;ratioP2;P2;SDS_P1;SDS_P2;PMS_P1;PMS_P2;Temp;Humidity;BMP_temperature;BMP_pressure;BME280_temperature;BME280_humidity;BME280_pressure;Samples;Min_cycle;Max_cycle;Signal;HPM_P1;HPM_P2
2024/03/09 00:04:43;;;;;;;44.30;28.70;;;;;;;-2.12;70.09;99732.73;448152;1238;125547;-59
2024/03/09 00:14:47;;;;;;;42.40;32.30;;;;;;;-2.29;70.92;99726.71;448371;1235;138908;-58
2024/03/09 00:24:50;;;;;;;58.60;40.60;;;;;;;-2.43;71.48;99722.02;447906;1240;140288;-59
2024/03/09 00:34:56;;;;;;;48.20;33.90;;;;;;;-2.49;72.48;99714.89;447755;1239;139946;-60
2024/03/09 00:45:03;;;;;;;49.80;33.50;;;;;;;-2.51;73.26;99713.02;447755;1241;139721;-59
2024/03/09 00:55:10;;;;;;;48.30;31.70;;;;;;;-2.59;73.44;99713.07;449213;1240;139221;-59
2024/03/09 01:05:15;;;;;;;40.50;29.60;;;;;;;-2.67;73.98;99700.98;448142;1236;139609;-60
2024/03/09 01:15:20;;;;;;;42.80;30.00;;;;;;;-2.85;73.84;99690.14;447946;1240;139425;-57
2024/03/09 01:25:26;;;;;;;43.20;29.20;;;;;;;-3.10;74.03;99687.58;448091;1241;139163;-58
2024/03/09 01:35:32;;;;;;;40.50;27.60;;;;;;;-3.31;74.70;99684.95;447939;1239;139703;-59
2024/03/09 01:45:34;;;;;;;;;;;;;;;-3.47;75.32;99682.64;447719;1236;139129;-58
2024/03/09 01:55:38;;;;;;;39.40;29.60;;;;;;;-3.62;75.94;99676.56;448341;1239;125505;-58
2024/03/09 02:05:45;;;;;;;41.80;30.30;;;;;;;-3.72;76.58;99675.40;447619;1240;139759;-58
2024/03/09 02:15:49;;;;;;;48.90;35.00;;;;;;;-3.84;77.01;99664.67;447907;1241;138219;-59
2024/03/09 02:25:56;;;;;;;44.40;30.90;;;;;;;-3.86;77.77;99659.91;447497;1240;138991;-57
2024/03/09 02:36:01;;;;;;;42.00;29.60;;;;;;;-3.87;78.53;99648.77;448956;1236;139492;-69
2024/03/09 02:46:07;;;;;;;43.20;27.50;;;;;;;-3.79;79.46;99638.30;447991;1238;139497;-68
2024/03/09 02:56:12;;;;;;;44.30;29.80;;;;;;;-3.75;79.67;99638.80;447755;1240;139871;-58
2024/03/09 03:06:18;;;;;;;43.10;28.80;;;;;;;-3.74;79.82;99636.92;447829;1240;141006;-57
2024/03/09 03:16:26;;;;;;;48.40;29.40;;;;;;;-3.71;80.33;99638.77;448650;1240;139596;-69
2024/03/09 03:26:30;;;;;;;42.00;28.10;;;;;;;-3.63;80.98;99627.79;449115;1240;139235;-71
2024/03/09 03:36:38;;;;;;;44.60;30.80;;;;;;;-3.53;81.29;99620.71;447518;1238;139057;-60
2024/03/09 03:46:43;;;;;;;42.80;28.90;;;;;;;-3.47;81.58;99617.27;447331;1240;139217;-60
2024/03/09 03:56:47;;;;;;;46.30;29.80;;;;;;;-3.40;81.95;99617.39;447531;1242;139011;-60
2024/03/09 04:06:50;;;;;;;43.80;29.40;;;;;;;-3.37;82.04;99620.45;447360;1240;139029;-59
2024/03/09 04:16:57;;;;;;;49.90;30.40;;;;;;;-3.35;82.41;99611.36;447820;1240;139139;-59
2024/03/09 04:27:03;;;;;;;41.90;28.70;;;;;;;-3.32;82.65;99609.13;447903;1242;139279;-70
2024/03/09 04:37:08;;;;;;;46.70;30.10;;;;;;;-3.30;83.01;99600.89;447891;1240;139104;-69
2024/03/09 04:47:13;;;;;;;45.20;28.00;;;;;;;-3.29;83.15;99595.06;447820;1237;139439;-69
2024/03/09 04:57:24;;;;;;;38.40;27.10;;;;;;;-3.24;83.44;99584.25;449053;1239;140160;-69
2024/03/09 05:07:27;;;;;;;34.90;25.60;;;;;;;-3.28;83.20;99584.27;447759;1241;140003;-70
2024/03/09 05:17:33;;;;;;;43.50;29.50;;;;;;;-3.31;83.44;99588.73;447940;1240;139669;-71
2024/03/09 05:27:42;;;;;;;38.90;26.50;;;;;;;-3.30;83.89;99583.77;447936;1240;139628;-69
2024/03/09 05:37:45;;;;;;;43.80;28.80;;;;;;;-3.08;84.50;99575.89;447710;1240;139412;-70
2024/03/09 05:47:53;;;;;;;46.10;29.50;;;;;;;-2.72;84.64;99578.83;447432;1240;139162;-60
2024/03/09 05:57:58;;;;;;;44.00;30.40;;;;;;;-2.20;84.73;99580.67;447585;1239;140213;-60
2024/03/09 06:08:03;;;;;;;36.50;25.30;;;;;;;-0.59;84.89;99585.91;447082;1241;138928;-73
2024/03/09 06:18:07;;;;;;;31.50;25.70;;;;;;;2.65;81.87;99585.99;447557;1238;138979;-74
2024/03/09 06:28:13;;;;;;;31.30;22.70;;;;;;;5.75;75.86;99576.91;447726;1240;138313;-74
2024/03/09 06:38:19;;;;;;;;;;;;;;;8.68;70.00;99562.04;445262;1238;5084019;-73
2024/03/09 06:48:23;;;;;;;26.30;23.40;;;;;;;11.54;64.67;99551.60;447302;1241;124971;-60
2024/03/09 06:58:29;;;;;;;25.90;22.70;;;;;;;13.81;58.78;99547.83;447758;1236;138425;-61
2024/03/09 07:08:32;;;;;;;24.20;21.40;;;;;;;15.77;54.00;99552.00;448012;1240;138306;-72
2024/03/09 07:18:37;;;;;;;24.30;21.60;;;;;;;17.64;50.32;99552.90;447833;1240;139362;-60
2024/03/09 07:28:40;;;;;;;25.30;22.70;;;;;;;19.56;46.69;99549.98;447838;1240;138924;-60
2024/03/09 07:38:48;;;;;;;25.60;23.20;;;;;;;20.65;43.27;99551.35;448010;1240;138958;-62
2024/03/09 07:48:52;;;;;;;28.70;25.90;;;;;;;22.03;40.87;99536.52;447571;1240;140322;-61
2024/03/09 07:58:57;;;;;;;33.70;30.80;;;;;;;23.45;38.45;99531.58;447909;1241;138395;-60
2024/03/09 08:08:59;;;;;;;;;;;;;;;25.00;36.32;99528.42;447478;1240;138427;-61
2024/03/09 08:19:05;;;;;;;101.00;96.00;;;;;;;27.03;34.62;99511.52;447566;1241;125170;-60
2024/03/09 08:29:09;;;;;;;43.60;40.80;;;;;;;27.82;31.94;99501.93;447742;1240;138647;-62
2024/03/09 08:39:13;;;;;;;26.50;24.50;;;;;;;28.01;30.46;99498.69;448177;1241;138529;-61
2024/03/09 08:49:20;;;;;;;29.40;27.00;;;;;;;28.73;29.75;99481.27;447809;1240;138951;-63
2024/03/09 08:59:23;;;;;;;31.00;28.30;;;;;;;29.22;28.32;99468.73;447701;1240;138393;-71
2024/03/09 09:09:27;;;;;;;23.30;21.30;;;;;;;26.99;27.63;99461.73;448006;1237;139614;-73
2024/03/09 09:19:31;;;;;;;21.60;18.50;;;;;;;23.58;28.22;99455.83;447650;1238;138339;-74
2024/03/09 09:29:34;;;;;;;21.20;18.30;;;;;;;17.93;30.53;99456.58;447293;1240;138332;-75
2024/03/09 09:39:40;;;;;;;29.00;20.10;;;;;;;13.86;34.09;99462.98;447945;1238;138458;-73
2024/03/09 09:49:45;;;;;;;25.20;18.90;;;;;;;11.74;36.69;99467.45;447305;1239;138628;-73
2024/03/09 09:59:49;;;;;;;22.20;15.50;;;;;;;10.11;39.41;99466.08;447660;1240;138634;-60
2024/03/09 10:09:52;;;;;;;27.10;19.30;;;;;;;9.44;41.46;99464.81;448280;1240;138396;-58
2024/03/09 10:19:56;;;;;;;25.80;20.00;;;;;;;8.88;43.08;99463.61;446971;1238;139263;-60
2024/03/09 10:30:10;;;;;;;25.00;19.20;;;;;;;8.45;44.49;99458.38;446950;1240;141159;-70
2024/03/09 10:40:13;;;;;;;25.20;18.90;;;;;;;8.03;45.83;99452.03;447068;1239;138049;-61
2024/03/09 10:50:25;;;;;;;24.10;17.90;;;;;;;7.73;47.30;99436.41;447713;1240;139855;-60
2024/03/09 11:00:31;;;;;;;26.50;18.60;;;;;;;7.61;48.24;99420.98;447682;1236;138886;-59
2024/03/09 11:10:37;;;;;;;24.20;18.40;;;;;;;7.59;49.01;99405.94;447524;1237;138422;-60
2024/03/09 11:20:48;;;;;;;24.50;17.40;;;;;;;7.51;49.76;99388.48;447476;1238;139117;-60
2024/03/09 11:31:10;;;;;;;23.30;15.80;;;;;;;7.55;50.11;99371.52;447181;1240;138004;-59
2024/03/09 11:41:24;;;;;;;24.60;18.70;;;;;;;7.63;50.49;99365.66;446996;1238;138076;-59
2024/03/09 11:51:33;;;;;;;22.50;15.20;;;;;;;7.65;50.99;99350.92;447486;1239;137938;-62
2024/03/09 12:01:40;;;;;;;21.20;15.30;;;;;;;7.66;51.30;99346.33;447005;1239;139824;-58
2024/03/09 12:11:46;;;;;;;18.30;13.10;;;;;;;7.80;51.72;99331.48;447245;1235;138591;-59
2024/03/09 12:21:52;;;;;;;17.20;14.40;;;;;;;7.99;51.75;99308.08;447313;1241;138159;-60
2024/03/09 12:31:56;;;;;;;19.90;15.30;;;;;;;8.04;51.80;99294.57;447404;1239;138338;-58
2024/03/09 12:42:03;;;;;;;18.60;12.50;;;;;;;8.12;51.80;99278.05;447616;1240;138811;-59
2024/03/09 12:52:09;;;;;;;17.80;13.30;;;;;;;8.31;51.91;99278.19;447418;1239;138067;-71
2024/03/09 13:02:15;;;;;;;18.90;13.60;;;;;;;8.45;51.80;99273.30;447012;1240;138512;-60
2024/03/09 13:12:24;;;;;;;20.50;13.70;;;;;;;8.63;51.95;99279.08;447903;1239;138560;-60
2024/03/09 13:22:27;;;;;;;16.40;12.90;;;;;;;8.68;51.94;99271.08;447390;1238;138191;-60
2024/03/09 13:32:32;;;;;;;15.10;11.40;;;;;;;8.80;51.83;99261.29;447295;1239;138710;-60
2024/03/09 13:42:37;;;;;;;12.00;9.90;;;;;;;8.86;51.40;99246.80;447146;1236;138740;-60
2024/03/09 13:52:41;;;;;;;10.40;8.60;;;;;;;8.87;51.31;99234.50;447679;1236;138217;-60
2024/03/09 14:02:48;;;;;;;17.90;11.00;;;;;;;8.92;51.10;99230.19;447403;1236;138650;-61
2024/03/09 14:12:53;;;;;;;13.40;10.20;;;;;;;8.94;50.90;99216.92;448280;1236;138581;-60
2024/03/09 14:22:57;;;;;;;17.40;11.30;;;;;;;8.95;50.73;99196.08;448006;1239;139742;-72
2024/03/09 14:33:01;;;;;;;14.90;10.10;;;;;;;9.02;50.61;99189.73;447690;1239;138124;-73
2024/03/09 14:43:09;;;;;;;13.20;9.80;;;;;;;9.05;50.51;99185.70;447441;1236;138483;-60
2024/03/09 14:53:14;;;;;;;16.20;10.30;;;;;;;9.04;50.32;99179.17;447308;1240;138489;-59
2024/03/09 15:03:28;;;;;;;17.40;12.90;;;;;;;9.03;50.54;99171.38;447466;1236;138699;-61
2024/03/09 15:13:37;;;;;;;11.90;9.60;;;;;;;9.04;50.55;99163.94;447673;1240;138701;-62
2024/03/09 15:23:40;;;;;;;14.60;11.00;;;;;;;9.03;50.62;99155.61;447881;1236;138500;-61
2024/03/09 15:33:44;;;;;;;11.00;9.40;;;;;;;9.01;51.03;99142.15;448912;1240;138718;-60
2024/03/09 15:43:47;;;;;;;17.50;12.10;;;;;;;8.95;51.09;99126.27;447587;1238;138164;-62
2024/03/09 15:53:51;;;;;;;18.80;12.80;;;;;;;8.78;51.33;99124.57;447308;1236;139077;-61
2024/03/09 16:03:56;;;;;;;19.20;13.90;;;;;;;8.50;51.58;99121.94;447389;1239;138115;-60
2024/03/09 16:14:01;;;;;;;21.60;14.60;;;;;;;8.22;52.35;99120.16;447200;1240;138954;-72
2024/03/09 16:24:07;;;;;;;23.20;16.30;;;;;;;7.96;52.99;99123.30;447359;1236;138134;-71
2024/03/09 16:34:11;;;;;;;23.10;17.20;;;;;;;7.67;54.19;99127.86;448616;1240;137961;-60
2024/03/09 16:44:14;;;;;;;30.20;21.40;;;;;;;7.38;55.28;99131.27;448951;1240;138523;-61
2024/03/09 16:54:20;;;;;;;25.60;18.90;;;;;;;7.07;56.31;99122.88;448672;1238;139109;-60
2024/03/09 17:04:26;;;;;;;26.10;16.00;;;;;;;6.77;57.47;99126.65;447477;1236;138374;-59
2024/03/09 17:14:34;;;;;;;20.70;14.30;;;;;;;6.54;58.61;99136.79;447638;1236;138875;-60
2024/03/09 17:24:39;;;;;;;25.00;16.80;;;;;;;6.33;59.34;99143.13;447332;1241;139115;-61
2024/03/09 17:34:43;;;;;;;27.10;18.30;;;;;;;6.03;60.23;99141.19;447395;1236;138431;-60
2024/03/09 17:44:46;;;;;;;25.90;17.30;;;;;;;5.77;61.05;99143.76;447478;1239;138582;-60
2024/03/09 17:54:53;;;;;;;26.30;18.20;;;;;;;5.58;62.04;99133.09;447580;1240;138048;-61
2024/03/09 18:04:58;;;;;;;29.20;18.90;;;;;;;5.45;62.88;99123.14;448581;1240;138028;-61
2024/03/09 18:15:09;;;;;;;30.90;21.50;;;;;;;5.30;63.40;99134.08;447580;1239;138453;-71
2024/03/09 18:25:17;;;;;;;40.10;26.50;;;;;;;5.17;64.01;99143.23;447295;1240;140002;-71
2024/03/09 18:35:22;;;;;;;27.60;21.10;;;;;;;5.02;64.65;99140.46;447785;1239;138979;-58
2024/03/09 18:45:28;;;;;;;28.30;20.50;;;;;;;4.98;65.40;99135.49;448032;1240;290144;-61
2024/03/09 18:55:34;;;;;;;32.80;22.20;;;;;;;5.05;65.86;99132.53;447385;1240;138672;-71
2024/03/09 19:05:43;;;;;;;25.20;19.50;;;;;;;5.11;65.76;99130.52;447490;1240;138717;-69
2024/03/09 19:15:46;;;;;;;29.80;18.30;;;;;;;5.05;65.73;99136.00;447832;1240;139204;-59
2024/03/09 19:25:49;;;;;;;32.20;20.60;;;;;;;4.98;65.94;99131.48;447453;1236;138805;-59
2024/03/09 19:35:57;;;;;;;28.80;20.50;;;;;;;5.01;66.37;99135.88;447221;1241;139743;-57
2024/03/09 19:46:03;;;;;;;30.40;19.70;;;;;;;5.13;67.05;99142.58;447982;1240;139122;-72
2024/03/09 19:56:09;;;;;;;28.90;19.40;;;;;;;5.28;67.34;99142.71;447654;1240;139151;-70
2024/03/09 20:06:12;;;;;;;30.60;20.40;;;;;;;5.35;67.52;99136.63;447929;1240;139095;-59
2024/03/09 20:16:16;;;;;;;30.10;20.10;;;;;;;5.38;67.53;99130.26;448573;1240;139280;-61
2024/03/09 20:26:19;;;;;;;27.70;19.50;;;;;;;5.36;67.61;99124.45;448070;1240;139148;-74
2024/03/09 20:36:22;;;;;;;28.30;18.70;;;;;;;5.32;67.75;99117.54;447551;1236;139542;-71
2024/03/09 20:46:28;;;;;;;31.80;21.00;;;;;;;5.24;67.89;99120.86;447835;1240;139245;-59
2024/03/09 20:56:34;;;;;;;24.60;18.90;;;;;;;5.16;68.20;99115.67;448147;1238;138682;-58
2024/03/09 21:06:37;;;;;;;23.60;17.60;;;;;;;5.11;68.57;99109.68;447982;1240;138697;-59
2024/03/09 21:16:40;;;;;;;26.00;18.00;;;;;;;5.03;68.81;99103.98;447982;1240;138822;-60
2024/03/09 21:26:46;;;;;;;29.80;20.90;;;;;;;4.97;69.18;99096.69;447982;1240;138747;-59
2024/03/09 21:36:51;;;;;;;28.50;20.00;;;;;;;4.93;69.48;99093.05;447470;1236;139187;-60
2024/03/09 21:46:54;;;;;;;25.30;18.60;;;;;;;4.89;69.64;99085.77;447786;1240;139419;-60
2024/03/09 21:56:59;;;;;;;24.90;20.20;;;;;;;4.85;69.85;99082.33;447584;1240;138737;-60
2024/03/09 22:07:04;;;;;;;26.50;18.90;;;;;;;4.79;70.28;99066.84;447565;1240;139037;-59
2024/03/09 22:17:07;;;;;;;26.20;19.70;;;;;;;4.74;70.46;99055.65;448624;1240;140388;-60
2024/03/09 22:27:11;;;;;;;29.50;20.00;;;;;;;4.69;70.71;99044.58;447772;1236;139089;-59
2024/03/09 22:37:14;;;;;;;29.70;19.80;;;;;;;4.65;70.96;99055.70;448362;1240;138658;-58
2024/03/09 22:47:20;;;;;;;25.40;18.20;;;;;;;4.58;71.21;99067.10;447556;1240;139041;-58
2024/03/09 22:57:26;;;;;;;28.90;20.20;;;;;;;4.50;71.30;99075.81;447809;1240;138656;-59
2024/03/09 23:07:29;;;;;;;29.50;20.80;;;;;;;4.41;71.74;99073.45;447601;1238;138624;-59
2024/03/09 23:17:33;;;;;;;28.40;21.20;;;;;;;4.36;71.94;99069.70;447678;1241;138712;-59
2024/03/09 23:27:39;;;;;;;30.30;21.90;;;;;;;4.31;72.39;99072.52;447751;1240;137675;-58
2024/03/09 23:37:43;;;;;;;26.70;20.30;;;;;;;4.27;72.55;99069.46;447991;1236;138738;-72
2024/03/09 23:47:48;;;;;;;32.70;21.70;;;;;;;4.21;72.93;99064.88;448403;1240;139170;-69
2024/03/09 23:57:52;;;;;;;28.50;20.30;;;;;;;4.15;73.12;99060.98;448408;1241;138692;-58
